<?xml version="1.0" encoding="utf-8"?>
<gpx xmlns:xsi="http://www.w3.org/2001/XMLSchema-instance" xmlns:xsd="http://www.w3.org/2001/XMLSchema" version="1.1" creator="Shapelink.com" xmlns="http://www.topografix.com/GPX/1/1" xmlns:gpxtpx="http://www.garmin.com/xmlschemas/TrackPointExtension/v1">
  <metadata>
    <name>Övrigt 2.23 km, 2019-07-24</name>
    <desc></desc>
    <author><name>Marian Moron</name></author> 
    <time>2019-07-24T20:17:29Z</time>
  </metadata>
  <trk>
    <name>Övrigt 2.23 km, 2019-07-24</name>
    <trkseg>
      <trkpt lat="51.229830986118" lon="4.458099676999">
        <ele>47</ele>
        <time>2019-07-24T20:17:29Z</time>
      </trkpt>
      <trkpt lat="51.229826040797" lon="4.458256837624">
        <ele>60</ele>
        <time>2019-07-24T20:17:46Z</time>
      </trkpt>
      <trkpt lat="51.229878846767" lon="4.458504187493">
        <ele>56.4</ele>
        <time>2019-07-24T20:18:00Z</time>
      </trkpt>
      <trkpt lat="51.229840792941" lon="4.45895873793">
        <ele>42.6</ele>
        <time>2019-07-24T20:18:33Z</time>
      </trkpt>
      <trkpt lat="51.229734091354" lon="4.459118916039">
        <ele>29.6</ele>
        <time>2019-07-24T20:18:44Z</time>
      </trkpt>
      <trkpt lat="51.229641890454" lon="4.459004922199">
        <ele>25.8</ele>
        <time>2019-07-24T20:19:01Z</time>
      </trkpt>
      <trkpt lat="51.229585731724" lon="4.458944572519">
        <ele>24.8</ele>
        <time>2019-07-24T20:19:06Z</time>
      </trkpt>
      <trkpt lat="51.229139563187" lon="4.459021434542">
        <ele>18</ele>
        <time>2019-07-24T20:19:40Z</time>
      </trkpt>
      <trkpt lat="51.229075106376" lon="4.459042137835">
        <ele>17.8</ele>
        <time>2019-07-24T20:19:45Z</time>
      </trkpt>
      <trkpt lat="51.229004614597" lon="4.459186474153">
        <ele>16.6</ele>
        <time>2019-07-24T20:20:06Z</time>
      </trkpt>
      <trkpt lat="51.228932194981" lon="4.459278758872">
        <ele>15.8</ele>
        <time>2019-07-24T20:20:19Z</time>
      </trkpt>
      <trkpt lat="51.228499940398" lon="4.459434997488">
        <ele>15.6</ele>
        <time>2019-07-24T20:20:56Z</time>
      </trkpt>
      <trkpt lat="51.228371864966" lon="4.459812685902">
        <ele>16</ele>
        <time>2019-07-24T20:21:32Z</time>
      </trkpt>
      <trkpt lat="51.228343115049" lon="4.460226835581">
        <ele>17</ele>
        <time>2019-07-24T20:21:50Z</time>
      </trkpt>
      <trkpt lat="51.228238760394" lon="4.460379889075">
        <ele>17</ele>
        <time>2019-07-24T20:21:58Z</time>
      </trkpt>
      <trkpt lat="51.228176566696" lon="4.460471084147">
        <ele>17</ele>
        <time>2019-07-24T20:22:06Z</time>
      </trkpt>
      <trkpt lat="51.228253093443" lon="4.460600081588">
        <ele>16</ele>
        <time>2019-07-24T20:22:18Z</time>
      </trkpt>
      <trkpt lat="51.228300786454" lon="4.460672417385">
        <ele>16</ele>
        <time>2019-07-24T20:22:30Z</time>
      </trkpt>
      <trkpt lat="51.228505137176" lon="4.461318410418">
        <ele>23.6</ele>
        <time>2019-07-24T20:23:15Z</time>
      </trkpt>
      <trkpt lat="51.228561547363" lon="4.461315392934">
        <ele>24.4</ele>
        <time>2019-07-24T20:23:19Z</time>
      </trkpt>
      <trkpt lat="51.229003357312" lon="4.461489652635">
        <ele>44</ele>
        <time>2019-07-24T20:23:59Z</time>
      </trkpt>
      <trkpt lat="51.229042668423" lon="4.461568107219">
        <ele>35.8</ele>
        <time>2019-07-24T20:24:09Z</time>
      </trkpt>
      <trkpt lat="51.229034454161" lon="4.461919308829">
        <ele>18.4</ele>
        <time>2019-07-24T20:24:34Z</time>
      </trkpt>
      <trkpt lat="51.229079045869" lon="4.462643337351">
        <ele>4.4</ele>
        <time>2019-07-24T20:25:08Z</time>
      </trkpt>
      <trkpt lat="51.229091115805" lon="4.462868810461">
        <ele>5.4</ele>
        <time>2019-07-24T20:25:21Z</time>
      </trkpt>
      <trkpt lat="51.229079045869" lon="4.462926394114">
        <ele>6.8</ele>
        <time>2019-07-24T20:25:25Z</time>
      </trkpt>
      <trkpt lat="51.229016684533" lon="4.463215402026">
        <ele>13.6</ele>
        <time>2019-07-24T20:25:43Z</time>
      </trkpt>
      <trkpt lat="51.229095977307" lon="4.463933060304">
        <ele>2.6</ele>
        <time>2019-07-24T20:26:18Z</time>
      </trkpt>
      <trkpt lat="51.229077872403" lon="4.464159539242">
        <ele>0</ele>
        <time>2019-07-24T20:28:24Z</time>
      </trkpt>
      <trkpt lat="51.22903621436" lon="4.464203544217">
        <ele>0</ele>
        <time>2019-07-24T20:28:36Z</time>
      </trkpt>
      <trkpt lat="51.229009811375" lon="4.464230031021">
        <ele>0</ele>
        <time>2019-07-24T20:28:39Z</time>
      </trkpt>
      <trkpt lat="51.228963208011" lon="4.464369422018">
        <ele>1.6</ele>
        <time>2019-07-24T20:28:47Z</time>
      </trkpt>
      <trkpt lat="51.228924399814" lon="4.464389622397">
        <ele>1.6</ele>
        <time>2019-07-24T20:28:53Z</time>
      </trkpt>
      <trkpt lat="51.228832282733" lon="4.464409822776">
        <ele>5</ele>
        <time>2019-07-24T20:29:10Z</time>
      </trkpt>
      <trkpt lat="51.228808645775" lon="4.464437483046">
        <ele>5.4</ele>
        <time>2019-07-24T20:29:13Z</time>
      </trkpt>
      <trkpt lat="51.22870848207" lon="4.465124128294">
        <ele>13</ele>
        <time>2019-07-24T20:29:55Z</time>
      </trkpt>
      <trkpt lat="51.228663638905" lon="4.465589072287">
        <ele>9.2</ele>
        <time>2019-07-24T20:30:21Z</time>
      </trkpt>
      <trkpt lat="51.228440009813" lon="4.465955612774">
        <ele>8.2</ele>
        <time>2019-07-24T20:31:02Z</time>
      </trkpt>
      <trkpt lat="51.228347138361" lon="4.466068600786">
        <ele>6</ele>
        <time>2019-07-24T20:31:17Z</time>
      </trkpt>
      <trkpt lat="51.228138345232" lon="4.466291894602">
        <ele>5.4</ele>
        <time>2019-07-24T20:31:45Z</time>
      </trkpt>
      <trkpt lat="51.227937766365" lon="4.466617866693">
        <ele>3.2</ele>
        <time>2019-07-24T20:32:48Z</time>
      </trkpt>
      <trkpt lat="51.227922343669" lon="4.466739068967">
        <ele>4.4</ele>
        <time>2019-07-24T20:32:55Z</time>
      </trkpt>
      <trkpt lat="51.228091406592" lon="4.466853398083">
        <ele>4</ele>
        <time>2019-07-24T20:33:15Z</time>
      </trkpt>
      <trkpt lat="51.228261140067" lon="4.466988346673">
        <ele>1.8</ele>
        <time>2019-07-24T20:33:32Z</time>
      </trkpt>
      <trkpt lat="51.228677217583" lon="4.46731130128">
        <ele>0.8</ele>
        <time>2019-07-24T20:34:11Z</time>
      </trkpt>
      <trkpt lat="51.229113579297" lon="4.467515987278">
        <ele>0</ele>
        <time>2019-07-24T20:34:48Z</time>
      </trkpt>
      <trkpt lat="51.229555221608" lon="4.467646158185">
        <ele>0</ele>
        <time>2019-07-24T20:35:24Z</time>
      </trkpt>
      <trkpt lat="51.229649853259" lon="4.467631992774">
        <ele>0</ele>
        <time>2019-07-24T20:35:32Z</time>
      </trkpt>
      <trkpt lat="51.230092166122" lon="4.467453206847">
        <ele>0</ele>
        <time>2019-07-24T20:36:19Z</time>
      </trkpt>
      <trkpt lat="51.230112115044" lon="4.467452033381">
        <ele>0</ele>
        <time>2019-07-24T20:36:21Z</time>
      </trkpt>
      <trkpt lat="51.230561887798" lon="4.467356144445">
        <ele>0</ele>
        <time>2019-07-24T20:37:00Z</time>
      </trkpt>
      <trkpt lat="51.230657860553" lon="4.46731884499">
        <ele>0.6</ele>
        <time>2019-07-24T20:37:08Z</time>
      </trkpt>
      <trkpt lat="51.230688957402" lon="4.467270732884">
        <ele>1</ele>
        <time>2019-07-24T20:37:13Z</time>
      </trkpt>
      <trkpt lat="51.230688203031" lon="4.466543603059">
        <ele>1.4</ele>
        <time>2019-07-24T20:37:59Z</time>
      </trkpt>
      <trkpt lat="51.230757605163" lon="4.465825441867">
        <ele>9.6</ele>
        <time>2019-07-24T20:38:43Z</time>
      </trkpt>
      <trkpt lat="51.230711504713" lon="4.465110968711">
        <ele>9</ele>
        <time>2019-07-24T20:39:25Z</time>
      </trkpt>
      <trkpt lat="51.230670517222" lon="4.464725317492">
        <ele>8</ele>
        <time>2019-07-24T20:39:45Z</time>
      </trkpt>
      <trkpt lat="51.230614861406" lon="4.46453437781">
        <ele>6</ele>
        <time>2019-07-24T20:40:00Z</time>
      </trkpt>
      <trkpt lat="51.230459209523" lon="4.463907495509">
        <ele>4</ele>
        <time>2019-07-24T20:40:45Z</time>
      </trkpt>
      <trkpt lat="51.230439931153" lon="4.463784868312">
        <ele>6.6</ele>
        <time>2019-07-24T20:40:56Z</time>
      </trkpt>
      <trkpt lat="51.230325015304" lon="4.463279775018">
        <ele>5.8</ele>
        <time>2019-07-24T20:41:39Z</time>
      </trkpt>
      <trkpt lat="51.230254858801" lon="4.463058911953">
        <ele>0.6</ele>
        <time>2019-07-24T20:42:09Z</time>
      </trkpt>
      <trkpt lat="51.230038354324" lon="4.462491876418">
        <ele>4.8</ele>
        <time>2019-07-24T20:42:47Z</time>
      </trkpt>
      <trkpt lat="51.230024188913" lon="4.462455415153">
        <ele>5.2</ele>
        <time>2019-07-24T20:42:51Z</time>
      </trkpt>
      <trkpt lat="51.229798212889" lon="4.461869268886">
        <ele>0</ele>
        <time>2019-07-24T20:43:30Z</time>
      </trkpt>
      <trkpt lat="51.229674412226" lon="4.461192933375">
        <ele>0.8</ele>
        <time>2019-07-24T20:44:04Z</time>
      </trkpt>
      <trkpt lat="51.229577768919" lon="4.461001239322">
        <ele>4</ele>
        <time>2019-07-24T20:44:16Z</time>
      </trkpt>
      <trkpt lat="51.229554718694" lon="4.460955138872">
        <ele>9.2</ele>
        <time>2019-07-24T20:44:26Z</time>
      </trkpt>
      <trkpt lat="51.229464361812" lon="4.460851287131">
        <ele>11.8</ele>
        <time>2019-07-24T20:44:39Z</time>
      </trkpt>
      <trkpt lat="51.229172336416" lon="4.460613408809">
        <ele>4.8</ele>
        <time>2019-07-24T20:45:23Z</time>
      </trkpt>
      <trkpt lat="51.22900603952" lon="4.46074156806">
        <ele>4.6</ele>
        <time>2019-07-24T20:45:43Z</time>
      </trkpt>
      <trkpt lat="51.228695154849" lon="4.460951869931">
        <ele>0</ele>
        <time>2019-07-24T20:46:20Z</time>
      </trkpt>
      <trkpt lat="51.228331883303" lon="4.460678033258">
        <ele>0</ele>
        <time>2019-07-24T20:46:52Z</time>
      </trkpt>
      <trkpt lat="51.228331631846" lon="4.460054838993">
        <ele>13.8</ele>
        <time>2019-07-24T20:47:20Z</time>
      </trkpt>
      <trkpt lat="51.228421318176" lon="4.459939839325">
        <ele>16.2</ele>
        <time>2019-07-24T20:47:31Z</time>
      </trkpt>
      <trkpt lat="51.228503544615" lon="4.459249841317">
        <ele>7.8</ele>
        <time>2019-07-24T20:48:10Z</time>
      </trkpt>
      <trkpt lat="51.228518045302" lon="4.459026715139">
        <ele>9.6</ele>
        <time>2019-07-24T20:48:22Z</time>
      </trkpt>
      <trkpt lat="51.228561212087" lon="4.458379716278">
        <ele>12.2</ele>
        <time>2019-07-24T20:48:58Z</time>
      </trkpt>
      <trkpt lat="51.228732957218" lon="4.458127588726">
        <ele>2.8</ele>
        <time>2019-07-24T20:49:26Z</time>
      </trkpt>
      <trkpt lat="51.229194296994" lon="4.458073944566">
        <ele>12.2</ele>
        <time>2019-07-24T20:50:09Z</time>
      </trkpt>
      <trkpt lat="51.229357995501" lon="4.458026083917">
        <ele>14.4</ele>
        <time>2019-07-24T20:50:37Z</time>
      </trkpt>
      <trkpt lat="51.229691427483" lon="4.457898343761">
        <ele>5.6</ele>
        <time>2019-07-24T20:51:19Z</time>
      </trkpt>
      <trkpt lat="51.229697462451" lon="4.457913598819">
        <ele>7.8</ele>
        <time>2019-07-24T20:51:27Z</time>
      </trkpt>
    </trkseg>
  </trk>
</gpx>